sensor_id;sensor_type;location;lat;lon;timestamp;temperature;humidity
75471;HTU21D;64051;46.320;48.028;2023-03-01T00:02:06;5.81;81.28
75471;HTU21D;64051;46.320;48.028;2023-03-01T00:04:32;5.76;81.46
75471;HTU21D;64051;46.320;48.028;2023-03-01T00:06:58;5.70;82.11
75471;HTU21D;64051;46.320;48.028;2023-03-01T00:09:24;5.65;82.06
75471;HTU21D;64051;46.320;48.028;2023-03-01T00:11:50;5.63;81.53
75471;HTU21D;64051;46.320;48.028;2023-03-01T00:14:16;5.62;80.75
75471;HTU21D;64051;46.320;48.028;2023-03-01T00:16:44;5.57;81.14
75471;HTU21D;64051;46.320;48.028;2023-03-01T00:19:14;5.54;81.51
75471;HTU21D;64051;46.320;48.028;2023-03-01T00:21:40;5.53;81.02
75471;HTU21D;64051;46.320;48.028;2023-03-01T00:24:07;5.52;80.75
75471;HTU21D;64051;46.320;48.028;2023-03-01T00:26:33;5.51;80.85
75471;HTU21D;64051;46.320;48.028;2023-03-01T00:28:59;5.48;81.02
75471;HTU21D;64051;46.320;48.028;2023-03-01T00:31:28;5.43;81.27
75471;HTU21D;64051;46.320;48.028;2023-03-01T00:33:56;5.41;81.19
75471;HTU21D;64051;46.320;48.028;2023-03-01T00:36:24;5.40;80.56
75471;HTU21D;64051;46.320;48.028;2023-03-01T00:38:50;5.38;80.77
75471;HTU21D;64051;46.320;48.028;2023-03-01T00:41:18;5.34;80.59
75471;HTU21D;64051;46.320;48.028;2023-03-01T00:43:44;5.33;80.43
75471;HTU21D;64051;46.320;48.028;2023-03-01T00:46:16;5.30;80.70
75471;HTU21D;64051;46.320;48.028;2023-03-01T00:48:42;5.26;80.90
75471;HTU21D;64051;46.320;48.028;2023-03-01T00:51:09;5.20;80.62
75471;HTU21D;64051;46.320;48.028;2023-03-01T00:53:36;5.16;80.79
75471;HTU21D;64051;46.320;48.028;2023-03-01T00:56:04;5.11;80.46
75471;HTU21D;64051;46.320;48.028;2023-03-01T00:58:30;5.07;80.73
75471;HTU21D;64051;46.320;48.028;2023-03-01T01:00:57;5.07;80.37
75471;HTU21D;64051;46.320;48.028;2023-03-01T01:03:23;5.04;80.68
75471;HTU21D;64051;46.320;48.028;2023-03-01T01:05:51;5.02;80.56
75471;HTU21D;64051;46.320;48.028;2023-03-01T01:08:18;5.00;80.62
75471;HTU21D;64051;46.320;48.028;2023-03-01T01:10:45;4.98;80.29
75471;HTU21D;64051;46.320;48.028;2023-03-01T01:13:12;4.97;80.27
75471;HTU21D;64051;46.320;48.028;2023-03-01T01:15:38;4.96;80.11
75471;HTU21D;64051;46.320;48.028;2023-03-01T01:18:04;4.94;79.99
75471;HTU21D;64051;46.320;48.028;2023-03-01T01:20:30;4.92;80.12
75471;HTU21D;64051;46.320;48.028;2023-03-01T01:22:57;4.88;80.05
75471;HTU21D;64051;46.320;48.028;2023-03-01T01:25:23;4.87;80.23
75471;HTU21D;64051;46.320;48.028;2023-03-01T01:27:53;4.84;80.37
75471;HTU21D;64051;46.320;48.028;2023-03-01T01:30:19;4.84;80.20
75471;HTU21D;64051;46.320;48.028;2023-03-01T01:32:45;4.81;80.07
75471;HTU21D;64051;46.320;48.028;2023-03-01T01:35:11;4.79;80.23
75471;HTU21D;64051;46.320;48.028;2023-03-01T01:37:37;4.76;80.91
75471;HTU21D;64051;46.320;48.028;2023-03-01T01:40:03;4.76;80.55
75471;HTU21D;64051;46.320;48.028;2023-03-01T01:42:30;4.75;80.51
75471;HTU21D;64051;46.320;48.028;2023-03-01T01:45:24;4.73;81.28
75471;HTU21D;64051;46.320;48.028;2023-03-01T01:47:55;4.69;80.65
75471;HTU21D;64051;46.320;48.028;2023-03-01T01:50:23;4.68;81.05
75471;HTU21D;64051;46.320;48.028;2023-03-01T01:52:50;4.66;80.88
75471;HTU21D;64051;46.320;48.028;2023-03-01T01:55:23;4.65;80.81
75471;HTU21D;64051;46.320;48.028;2023-03-01T01:57:54;4.63;80.81
75471;HTU21D;64051;46.320;48.028;2023-03-01T02:00:23;4.64;80.30
75471;HTU21D;64051;46.320;48.028;2023-03-01T02:02:54;4.60;80.69
75471;HTU21D;64051;46.320;48.028;2023-03-01T02:05:44;4.59;80.98
75471;HTU21D;64051;46.320;48.028;2023-03-01T02:08:13;4.56;80.71
75471;HTU21D;64051;46.320;48.028;2023-03-01T02:10:40;4.54;80.36
75471;HTU21D;64051;46.320;48.028;2023-03-01T02:13:09;4.51;80.40
75471;HTU21D;64051;46.320;48.028;2023-03-01T02:15:36;4.46;80.45
75471;HTU21D;64051;46.320;48.028;2023-03-01T02:18:04;4.43;80.47
75471;HTU21D;64051;46.320;48.028;2023-03-01T02:23:15;4.36;80.60
75471;HTU21D;64051;46.320;48.028;2023-03-01T02:28:42;4.29;80.52
75471;HTU21D;64051;46.320;48.028;2023-03-01T02:31:09;4.26;80.20
75471;HTU21D;64051;46.320;48.028;2023-03-01T02:33:56;4.19;80.43
75471;HTU21D;64051;46.320;48.028;2023-03-01T02:36:26;4.14;80.20
75471;HTU21D;64051;46.320;48.028;2023-03-01T02:38:58;4.06;80.37
75471;HTU21D;64051;46.320;48.028;2023-03-01T02:41:26;4.02;80.14
75471;HTU21D;64051;46.320;48.028;2023-03-01T02:43:54;3.95;80.14
75471;HTU21D;64051;46.320;48.028;2023-03-01T02:46:23;3.92;80.09
75471;HTU21D;64051;46.320;48.028;2023-03-01T02:48:55;3.87;80.10
75471;HTU21D;64051;46.320;48.028;2023-03-01T02:54:24;3.82;80.62
75471;HTU21D;64051;46.320;48.028;2023-03-01T02:56:52;3.78;80.59
75471;HTU21D;64051;46.320;48.028;2023-03-01T02:59:23;3.75;80.46
75471;HTU21D;64051;46.320;48.028;2023-03-01T03:01:50;3.73;80.21
75471;HTU21D;64051;46.320;48.028;2023-03-01T03:04:18;3.71;80.09
75471;HTU21D;64051;46.320;48.028;2023-03-01T03:06:49;3.70;80.03
75471;HTU21D;64051;46.320;48.028;2023-03-01T03:09:16;3.65;80.38
75471;HTU21D;64051;46.320;48.028;2023-03-01T03:11:42;3.62;80.45
75471;HTU21D;64051;46.320;48.028;2023-03-01T03:14:10;3.63;80.65
75471;HTU21D;64051;46.320;48.028;2023-03-01T03:16:41;3.63;80.09
75471;HTU21D;64051;46.320;48.028;2023-03-01T03:19:08;3.62;80.16
75471;HTU21D;64051;46.320;48.028;2023-03-01T03:21:34;3.58;80.03
75471;HTU21D;64051;46.320;48.028;2023-03-01T03:24:00;3.60;79.64
75471;HTU21D;64051;46.320;48.028;2023-03-01T03:26:26;3.59;79.64
75471;HTU21D;64051;46.320;48.028;2023-03-01T03:28:55;3.57;79.73
75471;HTU21D;64051;46.320;48.028;2023-03-01T03:31:22;3.59;79.58
75471;HTU21D;64051;46.320;48.028;2023-03-01T03:33:48;3.58;79.43
75471;HTU21D;64051;46.320;48.028;2023-03-01T03:36:18;3.53;78.64
75471;HTU21D;64051;46.320;48.028;2023-03-01T03:38:45;3.50;78.75
75471;HTU21D;64051;46.320;48.028;2023-03-01T03:41:15;3.50;78.38
75471;HTU21D;64051;46.320;48.028;2023-03-01T03:43:43;3.44;78.10
75471;HTU21D;64051;46.320;48.028;2023-03-01T03:46:10;3.41;77.80
75471;HTU21D;64051;46.320;48.028;2023-03-01T03:48:39;3.33;77.32
75471;HTU21D;64051;46.320;48.028;2023-03-01T03:51:06;3.28;77.50
75471;HTU21D;64051;46.320;48.028;2023-03-01T03:53:32;3.26;77.69
75471;HTU21D;64051;46.320;48.028;2023-03-01T03:55:59;3.25;77.74
75471;HTU21D;64051;46.320;48.028;2023-03-01T03:58:25;3.23;77.80
75471;HTU21D;64051;46.320;48.028;2023-03-01T04:00:54;3.21;77.82
75471;HTU21D;64051;46.320;48.028;2023-03-01T04:03:25;3.20;77.84
75471;HTU21D;64051;46.320;48.028;2023-03-01T04:05:51;3.24;78.06
75471;HTU21D;64051;46.320;48.028;2023-03-01T04:08:21;3.25;77.89
75471;HTU21D;64051;46.320;48.028;2023-03-01T04:10:52;3.25;77.80
75471;HTU21D;64051;46.320;48.028;2023-03-01T04:13:22;3.23;77.70
75471;HTU21D;64051;46.320;48.028;2023-03-01T04:15:52;3.24;77.76
75471;HTU21D;64051;46.320;48.028;2023-03-01T04:18:24;3.26;77.72
75471;HTU21D;64051;46.320;48.028;2023-03-01T04:20:53;3.26;77.69
75471;HTU21D;64051;46.320;48.028;2023-03-01T04:23:21;3.26;77.76
75471;HTU21D;64051;46.320;48.028;2023-03-01T04:25:56;3.28;77.72
75471;HTU21D;64051;46.320;48.028;2023-03-01T04:28:25;3.28;77.71
75471;HTU21D;64051;46.320;48.028;2023-03-01T04:30:55;3.30;77.72
75471;HTU21D;64051;46.320;48.028;2023-03-01T04:33:22;3.31;77.62
75471;HTU21D;64051;46.320;48.028;2023-03-01T04:35:49;3.30;77.55
75471;HTU21D;64051;46.320;48.028;2023-03-01T04:38:16;3.33;77.53
75471;HTU21D;64051;46.320;48.028;2023-03-01T04:40:42;3.33;77.54
75471;HTU21D;64051;46.320;48.028;2023-03-01T04:43:12;3.35;77.44
75471;HTU21D;64051;46.320;48.028;2023-03-01T04:45:42;3.35;77.50
75471;HTU21D;64051;46.320;48.028;2023-03-01T04:48:08;3.40;77.39
75471;HTU21D;64051;46.320;48.028;2023-03-01T04:50:34;3.41;77.37
75471;HTU21D;64051;46.320;48.028;2023-03-01T04:53:00;3.41;77.24
75471;HTU21D;64051;46.320;48.028;2023-03-01T04:55:27;3.43;77.37
75471;HTU21D;64051;46.320;48.028;2023-03-01T04:57:53;3.44;77.18
75471;HTU21D;64051;46.320;48.028;2023-03-01T05:00:21;3.49;77.00
75471;HTU21D;64051;46.320;48.028;2023-03-01T05:02:48;3.50;76.60
75471;HTU21D;64051;46.320;48.028;2023-03-01T05:05:23;3.55;76.78
75471;HTU21D;64051;46.320;48.028;2023-03-01T05:07:52;3.60;76.49
75471;HTU21D;64051;46.320;48.028;2023-03-01T05:10:18;3.62;75.78
75471;HTU21D;64051;46.320;48.028;2023-03-01T05:12:47;3.68;76.13
75471;HTU21D;64051;46.320;48.028;2023-03-01T05:15:13;3.71;76.15
75471;HTU21D;64051;46.320;48.028;2023-03-01T05:17:39;3.74;76.09
75471;HTU21D;64051;46.320;48.028;2023-03-01T05:20:05;3.75;75.47
75471;HTU21D;64051;46.320;48.028;2023-03-01T05:22:35;3.84;75.84
75471;HTU21D;64051;46.320;48.028;2023-03-01T05:25:02;3.89;75.54
75471;HTU21D;64051;46.320;48.028;2023-03-01T05:27:28;3.95;75.67
75471;HTU21D;64051;46.320;48.028;2023-03-01T05:29:57;4.03;75.30
75471;HTU21D;64051;46.320;48.028;2023-03-01T05:32:22;4.07;74.84
75471;HTU21D;64051;46.320;48.028;2023-03-01T05:34:48;4.09;75.17
75471;HTU21D;64051;46.320;48.028;2023-03-01T05:37:14;4.14;75.31
75471;HTU21D;64051;46.320;48.028;2023-03-01T05:39:41;4.20;74.77
75471;HTU21D;64051;46.320;48.028;2023-03-01T05:42:11;4.29;75.12
75471;HTU21D;64051;46.320;48.028;2023-03-01T05:44:40;4.34;74.29
75471;HTU21D;64051;46.320;48.028;2023-03-01T05:47:06;4.38;74.02
75471;HTU21D;64051;46.320;48.028;2023-03-01T05:49:32;4.45;74.39
75471;HTU21D;64051;46.320;48.028;2023-03-01T05:51:58;4.51;74.16
75471;HTU21D;64051;46.320;48.028;2023-03-01T05:54:24;4.58;73.15
75471;HTU21D;64051;46.320;48.028;2023-03-01T05:56:50;4.62;74.31
75471;HTU21D;64051;46.320;48.028;2023-03-01T05:59:16;4.69;74.25
75471;HTU21D;64051;46.320;48.028;2023-03-01T06:01:42;4.72;73.03
75471;HTU21D;64051;46.320;48.028;2023-03-01T06:04:09;4.73;73.25
75471;HTU21D;64051;46.320;48.028;2023-03-01T06:06:35;4.80;73.48
75471;HTU21D;64051;46.320;48.028;2023-03-01T06:09:06;4.98;73.83
75471;HTU21D;64051;46.320;48.028;2023-03-01T06:11:38;5.06;73.33
75471;HTU21D;64051;46.320;48.028;2023-03-01T06:14:05;5.09;72.76
75471;HTU21D;64051;46.320;48.028;2023-03-01T06:16:33;5.16;71.01
75471;HTU21D;64051;46.320;48.028;2023-03-01T06:18:59;5.17;71.90
75471;HTU21D;64051;46.320;48.028;2023-03-01T06:21:25;5.19;72.05
75471;HTU21D;64051;46.320;48.028;2023-03-01T06:23:52;5.26;71.80
75471;HTU21D;64051;46.320;48.028;2023-03-01T06:26:18;5.26;71.67
75471;HTU21D;64051;46.320;48.028;2023-03-01T06:28:44;5.32;71.85
75471;HTU21D;64051;46.320;48.028;2023-03-01T06:31:11;5.37;70.51
75471;HTU21D;64051;46.320;48.028;2023-03-01T06:33:37;5.49;71.55
75471;HTU21D;64051;46.320;48.028;2023-03-01T06:36:03;5.53;70.70
75471;HTU21D;64051;46.320;48.028;2023-03-01T06:38:30;5.55;70.92
75471;HTU21D;64051;46.320;48.028;2023-03-01T06:40:56;5.65;68.79
75471;HTU21D;64051;46.320;48.028;2023-03-01T06:43:23;5.76;70.25
75471;HTU21D;64051;46.320;48.028;2023-03-01T06:45:49;5.85;70.32
75471;HTU21D;64051;46.320;48.028;2023-03-01T06:48:27;5.97;70.79
75471;HTU21D;64051;46.320;48.028;2023-03-01T06:50:53;6.14;70.71
75471;HTU21D;64051;46.320;48.028;2023-03-01T06:53:19;6.33;70.15
75471;HTU21D;64051;46.320;48.028;2023-03-01T06:55:53;6.43;68.94
75471;HTU21D;64051;46.320;48.028;2023-03-01T06:58:22;6.41;68.44
75471;HTU21D;64051;46.320;48.028;2023-03-01T07:00:51;6.33;68.17
75471;HTU21D;64051;46.320;48.028;2023-03-01T07:03:17;6.29;69.13
75471;HTU21D;64051;46.320;48.028;2023-03-01T07:05:49;6.29;67.90
75471;HTU21D;64051;46.320;48.028;2023-03-01T07:08:15;6.33;68.40
75471;HTU21D;64051;46.320;48.028;2023-03-01T07:10:41;6.37;68.29
75471;HTU21D;64051;46.320;48.028;2023-03-01T07:13:07;6.44;68.35
75471;HTU21D;64051;46.320;48.028;2023-03-01T07:15:33;6.59;68.37
75471;HTU21D;64051;46.320;48.028;2023-03-01T07:17:59;6.61;67.88
75471;HTU21D;64051;46.320;48.028;2023-03-01T07:20:25;6.58;67.72
75471;HTU21D;64051;46.320;48.028;2023-03-01T07:22:55;6.55;67.20
75471;HTU21D;64051;46.320;48.028;2023-03-01T07:25:22;6.60;67.53
75471;HTU21D;64051;46.320;48.028;2023-03-01T07:28:00;6.60;66.92
75471;HTU21D;64051;46.320;48.028;2023-03-01T07:30:26;6.55;66.54
75471;HTU21D;64051;46.320;48.028;2023-03-01T07:32:57;6.45;65.81
75471;HTU21D;64051;46.320;48.028;2023-03-01T07:35:25;6.35;66.82
75471;HTU21D;64051;46.320;48.028;2023-03-01T07:37:51;6.22;66.51
75471;HTU21D;64051;46.320;48.028;2023-03-01T07:40:17;6.20;65.96
75471;HTU21D;64051;46.320;48.028;2023-03-01T07:42:46;6.20;67.00
75471;HTU21D;64051;46.320;48.028;2023-03-01T07:45:12;6.29;66.92
75471;HTU21D;64051;46.320;48.028;2023-03-01T07:47:39;6.39;66.57
75471;HTU21D;64051;46.320;48.028;2023-03-01T07:50:05;6.55;66.44
75471;HTU21D;64051;46.320;48.028;2023-03-01T07:52:32;6.68;65.56
75471;HTU21D;64051;46.320;48.028;2023-03-01T07:54:57;6.79;65.56
75471;HTU21D;64051;46.320;48.028;2023-03-01T07:57:23;6.89;65.50
75471;HTU21D;64051;46.320;48.028;2023-03-01T07:59:49;6.94;64.80
75471;HTU21D;64051;46.320;48.028;2023-03-01T08:02:18;6.99;64.52
75471;HTU21D;64051;46.320;48.028;2023-03-01T08:04:45;7.08;64.85
75471;HTU21D;64051;46.320;48.028;2023-03-01T08:07:14;7.15;64.96
75471;HTU21D;64051;46.320;48.028;2023-03-01T08:09:40;7.24;64.57
75471;HTU21D;64051;46.320;48.028;2023-03-01T08:12:07;7.35;64.52
75471;HTU21D;64051;46.320;48.028;2023-03-01T08:14:33;7.48;64.51
75471;HTU21D;64051;46.320;48.028;2023-03-01T08:17:02;7.49;64.40
75471;HTU21D;64051;46.320;48.028;2023-03-01T08:19:29;7.46;63.98
75471;HTU21D;64051;46.320;48.028;2023-03-01T08:22:03;7.47;64.03
75471;HTU21D;64051;46.320;48.028;2023-03-01T08:24:32;7.47;63.67
75471;HTU21D;64051;46.320;48.028;2023-03-01T08:26:58;7.50;63.96
75471;HTU21D;64051;46.320;48.028;2023-03-01T08:29:30;7.59;63.56
75471;HTU21D;64051;46.320;48.028;2023-03-01T08:31:57;7.63;63.21
75471;HTU21D;64051;46.320;48.028;2023-03-01T08:34:23;7.65;62.70
75471;HTU21D;64051;46.320;48.028;2023-03-01T08:36:48;7.64;62.90
75471;HTU21D;64051;46.320;48.028;2023-03-01T08:39:18;7.70;63.44
75471;HTU21D;64051;46.320;48.028;2023-03-01T08:41:45;7.74;62.55
75471;HTU21D;64051;46.320;48.028;2023-03-01T08:44:12;7.72;59.79
75471;HTU21D;64051;46.320;48.028;2023-03-01T08:46:41;7.67;62.13
75471;HTU21D;64051;46.320;48.028;2023-03-01T08:49:11;7.55;61.75
75471;HTU21D;64051;46.320;48.028;2023-03-01T08:51:38;7.58;62.45
75471;HTU21D;64051;46.320;48.028;2023-03-01T08:54:16;7.62;59.90
75471;HTU21D;64051;46.320;48.028;2023-03-01T08:56:46;7.60;61.33
75471;HTU21D;64051;46.320;48.028;2023-03-01T08:59:14;7.61;62.12
75471;HTU21D;64051;46.320;48.028;2023-03-01T09:01:41;7.65;61.98
75471;HTU21D;64051;46.320;48.028;2023-03-01T09:04:09;7.73;61.08
75471;HTU21D;64051;46.320;48.028;2023-03-01T09:06:35;7.78;61.94
75471;HTU21D;64051;46.320;48.028;2023-03-01T09:09:03;7.91;61.63
75471;HTU21D;64051;46.320;48.028;2023-03-01T09:11:29;7.99;61.50
75471;HTU21D;64051;46.320;48.028;2023-03-01T09:13:55;8.02;60.54
75471;HTU21D;64051;46.320;48.028;2023-03-01T09:16:24;7.98;60.05
75471;HTU21D;64051;46.320;48.028;2023-03-01T09:18:53;7.98;60.91
75471;HTU21D;64051;46.320;48.028;2023-03-01T09:21:26;8.01;60.64
75471;HTU21D;64051;46.320;48.028;2023-03-01T09:23:52;8.05;60.26
75471;HTU21D;64051;46.320;48.028;2023-03-01T09:26:27;8.12;60.77
75471;HTU21D;64051;46.320;48.028;2023-03-01T09:28:56;8.19;60.37
75471;HTU21D;64051;46.320;48.028;2023-03-01T09:31:24;8.21;60.32
75471;HTU21D;64051;46.320;48.028;2023-03-01T09:33:52;8.22;59.89
75471;HTU21D;64051;46.320;48.028;2023-03-01T09:36:20;8.27;60.35
75471;HTU21D;64051;46.320;48.028;2023-03-01T09:38:47;8.31;60.07
75471;HTU21D;64051;46.320;48.028;2023-03-01T09:42:10;8.34;58.85
75471;HTU21D;64051;46.320;48.028;2023-03-01T09:46:57;8.37;59.37
75471;HTU21D;64051;46.320;48.028;2023-03-01T09:49:26;8.34;59.46
75471;HTU21D;64051;46.320;48.028;2023-03-01T09:54:23;8.34;59.36
75471;HTU21D;64051;46.320;48.028;2023-03-01T09:57:04;8.39;59.03
75471;HTU21D;64051;46.320;48.028;2023-03-01T10:00:38;8.45;59.27
75471;HTU21D;64051;46.320;48.028;2023-03-01T10:05:15;8.53;58.48
75471;HTU21D;64051;46.320;48.028;2023-03-01T10:08:38;8.58;57.12
75471;HTU21D;64051;46.320;48.028;2023-03-01T10:10:47;8.68;59.12
75471;HTU21D;64051;46.320;48.028;2023-03-01T10:16:55;8.89;54.81
75471;HTU21D;64051;46.320;48.028;2023-03-01T10:19:43;8.89;55.45
75471;HTU21D;64051;46.320;48.028;2023-03-01T10:22:27;8.86;57.61
75471;HTU21D;64051;46.320;48.028;2023-03-01T10:24:58;8.79;58.04
75471;HTU21D;64051;46.320;48.028;2023-03-01T10:27:31;8.78;58.12
75471;HTU21D;64051;46.320;48.028;2023-03-01T10:30:29;8.72;56.82
75471;HTU21D;64051;46.320;48.028;2023-03-01T10:32:58;8.72;58.25
75471;HTU21D;64051;46.320;48.028;2023-03-01T10:35:29;8.78;57.21
75471;HTU21D;64051;46.320;48.028;2023-03-01T10:38:12;8.87;54.26
75471;HTU21D;64051;46.320;48.028;2023-03-01T10:43:19;9.01;57.26
75471;HTU21D;64051;46.320;48.028;2023-03-01T10:45:48;8.97;57.19
75471;HTU21D;64051;46.320;48.028;2023-03-01T10:48:19;8.95;57.22
75471;HTU21D;64051;46.320;48.028;2023-03-01T10:51:05;9.01;55.19
75471;HTU21D;64051;46.320;48.028;2023-03-01T10:53:38;9.09;56.81
75471;HTU21D;64051;46.320;48.028;2023-03-01T10:56:11;9.15;57.42
75471;HTU21D;64051;46.320;48.028;2023-03-01T11:01:28;9.00;56.14
75471;HTU21D;64051;46.320;48.028;2023-03-01T11:04:12;8.94;54.79
75471;HTU21D;64051;46.320;48.028;2023-03-01T11:06:40;8.92;57.02
75471;HTU21D;64051;46.320;48.028;2023-03-01T11:09:21;8.95;55.80
75471;HTU21D;64051;46.320;48.028;2023-03-01T11:11:55;9.00;56.42
75471;HTU21D;64051;46.320;48.028;2023-03-01T11:14:24;8.98;56.32
75471;HTU21D;64051;46.320;48.028;2023-03-01T11:17:05;8.96;54.94
75471;HTU21D;64051;46.320;48.028;2023-03-01T11:19:36;8.92;56.32
75471;HTU21D;64051;46.320;48.028;2023-03-01T11:22:07;8.89;55.55
75471;HTU21D;64051;46.320;48.028;2023-03-01T11:24:52;8.90;55.91
75471;HTU21D;64051;46.320;48.028;2023-03-01T11:27:28;8.94;53.52
75471;HTU21D;64051;46.320;48.028;2023-03-01T11:30:07;9.01;56.10
75471;HTU21D;64051;46.320;48.028;2023-03-01T11:33:04;9.11;55.58
75471;HTU21D;64051;46.320;48.028;2023-03-01T11:35:28;9.14;55.52
75471;HTU21D;64051;46.320;48.028;2023-03-01T11:38:21;9.16;53.47
75471;HTU21D;64051;46.320;48.028;2023-03-01T11:41:28;9.12;54.82
75471;HTU21D;64051;46.320;48.028;2023-03-01T12:08:23;9.04;53.31
75471;HTU21D;64051;46.320;48.028;2023-03-01T12:16:26;9.02;53.81
75471;HTU21D;64051;46.320;48.028;2023-03-01T12:28:22;8.71;51.46
75471;HTU21D;64051;46.320;48.028;2023-03-01T12:31:06;8.56;53.56
75471;HTU21D;64051;46.320;48.028;2023-03-01T12:42:07;8.06;52.48
75471;HTU21D;64051;46.320;48.028;2023-03-01T12:47:36;7.90;53.59
75471;HTU21D;64051;46.320;48.028;2023-03-01T12:50:22;7.85;54.11
75471;HTU21D;64051;46.320;48.028;2023-03-01T12:52:55;7.79;54.49
75471;HTU21D;64051;46.320;48.028;2023-03-01T12:55:35;7.79;54.50
75471;HTU21D;64051;46.320;48.028;2023-03-01T12:58:20;7.74;53.05
75471;HTU21D;64051;46.320;48.028;2023-03-01T13:04:15;7.69;53.59
75471;HTU21D;64051;46.320;48.028;2023-03-01T13:15:32;7.54;54.78
75471;HTU21D;64051;46.320;48.028;2023-03-01T13:18:11;7.47;54.97
75471;HTU21D;64051;46.320;48.028;2023-03-01T13:20:55;7.45;55.11
75471;HTU21D;64051;46.320;48.028;2023-03-01T13:26:17;7.38;54.09
75471;HTU21D;64051;46.320;48.028;2023-03-01T13:28:52;7.32;54.99
75471;HTU21D;64051;46.320;48.028;2023-03-01T13:34:02;7.25;55.26
75471;HTU21D;64051;46.320;48.028;2023-03-01T13:39:31;7.10;55.61
75471;HTU21D;64051;46.320;48.028;2023-03-01T13:42:25;7.01;56.18
75471;HTU21D;64051;46.320;48.028;2023-03-01T13:44:50;6.94;56.36
75471;HTU21D;64051;46.320;48.028;2023-03-01T13:47:17;6.86;56.55
75471;HTU21D;64051;46.320;48.028;2023-03-01T13:52:43;6.74;56.47
75471;HTU21D;64051;46.320;48.028;2023-03-01T13:57:50;6.60;57.08
75471;HTU21D;64051;46.320;48.028;2023-03-01T14:00:37;6.54;57.21
75471;HTU21D;64051;46.320;48.028;2023-03-01T14:03:15;6.49;57.26
75471;HTU21D;64051;46.320;48.028;2023-03-01T14:05:57;6.41;57.58
75471;HTU21D;64051;46.320;48.028;2023-03-01T14:08:29;6.35;57.71
75471;HTU21D;64051;46.320;48.028;2023-03-01T14:13:48;6.23;58.03
75471;HTU21D;64051;46.320;48.028;2023-03-01T14:16:31;6.17;58.09
75471;HTU21D;64051;46.320;48.028;2023-03-01T14:19:15;6.11;58.27
75471;HTU21D;64051;46.320;48.028;2023-03-01T14:21:46;6.04;58.48
75471;HTU21D;64051;46.320;48.028;2023-03-01T14:24:20;5.97;58.62
75471;HTU21D;64051;46.320;48.028;2023-03-01T14:26:47;5.91;58.83
75471;HTU21D;64051;46.320;48.028;2023-03-01T14:29:36;5.83;59.22
75471;HTU21D;64051;46.320;48.028;2023-03-01T14:32:29;5.79;60.22
75471;HTU21D;64051;46.320;48.028;2023-03-01T14:34:59;5.69;59.46
75471;HTU21D;64051;46.320;48.028;2023-03-01T14:37:32;5.63;59.95
75471;HTU21D;64051;46.320;48.028;2023-03-01T14:39:59;5.57;60.23
75471;HTU21D;64051;46.320;48.028;2023-03-01T14:42:35;5.52;60.12
75471;HTU21D;64051;46.320;48.028;2023-03-01T14:45:02;5.46;60.79
75471;HTU21D;64051;46.320;48.028;2023-03-01T14:47:35;5.40;60.96
75471;HTU21D;64051;46.320;48.028;2023-03-01T14:50:23;5.37;61.12
75471;HTU21D;64051;46.320;48.028;2023-03-01T14:52:59;5.28;61.39
75471;HTU21D;64051;46.320;48.028;2023-03-01T14:55:35;5.23;61.63
75471;HTU21D;64051;46.320;48.028;2023-03-01T14:58:09;5.19;61.73
75471;HTU21D;64051;46.320;48.028;2023-03-01T15:00:55;5.15;62.71
75471;HTU21D;64051;46.320;48.028;2023-03-01T15:03:48;5.08;64.27
75471;HTU21D;64051;46.320;48.028;2023-03-01T15:06:19;5.05;62.08
75471;HTU21D;64051;46.320;48.028;2023-03-01T15:08:49;4.98;62.51
75471;HTU21D;64051;46.320;48.028;2023-03-01T15:11:17;4.96;62.50
75471;HTU21D;64051;46.320;48.028;2023-03-01T15:13:47;4.94;62.47
75471;HTU21D;64051;46.320;48.028;2023-03-01T15:16:42;4.90;63.73
75471;HTU21D;64051;46.320;48.028;2023-03-01T15:19:17;4.84;63.37
75471;HTU21D;64051;46.320;48.028;2023-03-01T15:21:49;4.80;63.30
75471;HTU21D;64051;46.320;48.028;2023-03-01T15:24:33;4.77;65.35
75471;HTU21D;64051;46.320;48.028;2023-03-01T15:27:02;4.72;63.41
75471;HTU21D;64051;46.320;48.028;2023-03-01T15:29:34;4.66;63.56
75471;HTU21D;64051;46.320;48.028;2023-03-01T15:32:26;4.63;63.81
75471;HTU21D;64051;46.320;48.028;2023-03-01T15:35:09;4.58;63.57
75471;HTU21D;64051;46.320;48.028;2023-03-01T15:37:52;4.53;63.99
75471;HTU21D;64051;46.320;48.028;2023-03-01T15:40:26;4.47;63.77
75471;HTU21D;64051;46.320;48.028;2023-03-01T15:43:03;4.43;64.33
75471;HTU21D;64051;46.320;48.028;2023-03-01T15:45:36;4.43;63.94
75471;HTU21D;64051;46.320;48.028;2023-03-01T15:48:23;4.41;64.53
75471;HTU21D;64051;46.320;48.028;2023-03-01T15:50:58;4.37;65.35
75471;HTU21D;64051;46.320;48.028;2023-03-01T15:53:29;4.35;64.47
75471;HTU21D;64051;46.320;48.028;2023-03-01T15:56:03;4.32;64.40
75471;HTU21D;64051;46.320;48.028;2023-03-01T15:58:42;4.29;65.06
75471;HTU21D;64051;46.320;48.028;2023-03-01T16:01:15;4.28;64.48
75471;HTU21D;64051;46.320;48.028;2023-03-01T16:03:45;4.21;65.15
75471;HTU21D;64051;46.320;48.028;2023-03-01T16:06:33;4.20;64.61
75471;HTU21D;64051;46.320;48.028;2023-03-01T16:09:05;4.16;65.11
75471;HTU21D;64051;46.320;48.028;2023-03-01T16:11:35;4.14;64.69
75471;HTU21D;64051;46.320;48.028;2023-03-01T16:14:05;4.13;65.27
75471;HTU21D;64051;46.320;48.028;2023-03-01T16:16:33;4.12;64.96
75471;HTU21D;64051;46.320;48.028;2023-03-01T16:19:05;4.06;65.69
75471;HTU21D;64051;46.320;48.028;2023-03-01T16:21:37;4.06;66.01
75471;HTU21D;64051;46.320;48.028;2023-03-01T16:24:03;4.06;65.48
75471;HTU21D;64051;46.320;48.028;2023-03-01T16:26:38;4.05;65.69
75471;HTU21D;64051;46.320;48.028;2023-03-01T16:29:05;4.04;65.68
75471;HTU21D;64051;46.320;48.028;2023-03-01T16:31:36;4.04;66.22
75471;HTU21D;64051;46.320;48.028;2023-03-01T16:34:11;4.02;66.05
75471;HTU21D;64051;46.320;48.028;2023-03-01T16:36:42;4.02;66.05
75471;HTU21D;64051;46.320;48.028;2023-03-01T16:39:09;4.00;66.22
75471;HTU21D;64051;46.320;48.028;2023-03-01T16:41:37;3.99;66.22
75471;HTU21D;64051;46.320;48.028;2023-03-01T16:44:06;3.99;66.35
75471;HTU21D;64051;46.320;48.028;2023-03-01T16:46:32;3.99;66.77
75471;HTU21D;64051;46.320;48.028;2023-03-01T16:48:58;3.98;66.12
75471;HTU21D;64051;46.320;48.028;2023-03-01T16:51:27;3.94;66.65
75471;HTU21D;64051;46.320;48.028;2023-03-01T16:53:55;3.92;66.57
75471;HTU21D;64051;46.320;48.028;2023-03-01T16:56:27;3.90;66.37
75471;HTU21D;64051;46.320;48.028;2023-03-01T16:58:58;3.88;66.06
75471;HTU21D;64051;46.320;48.028;2023-03-01T17:01:26;3.87;66.21
75471;HTU21D;64051;46.320;48.028;2023-03-01T17:04:06;3.83;67.28
75471;HTU21D;64051;46.320;48.028;2023-03-01T17:06:38;3.83;66.59
75471;HTU21D;64051;46.320;48.028;2023-03-01T17:09:04;3.80;66.48
75471;HTU21D;64051;46.320;48.028;2023-03-01T17:11:30;3.77;67.12
75471;HTU21D;64051;46.320;48.028;2023-03-01T17:13:59;3.74;66.59
75471;HTU21D;64051;46.320;48.028;2023-03-01T17:16:31;3.72;67.30
75471;HTU21D;64051;46.320;48.028;2023-03-01T17:19:02;3.71;67.32
75471;HTU21D;64051;46.320;48.028;2023-03-01T17:21:38;3.67;67.79
75471;HTU21D;64051;46.320;48.028;2023-03-01T17:24:04;3.64;67.62